Impacts METAR Board
IDs:

KAUS - Austin/Bergstrom Int, TX, US

Updated at: 2000 UTC 23 Jan 2020
Potential Impact None Slight Moderate High
Time 23/08Z 23/09Z 23/10Z 23/11Z 23/12Z 23/13Z 23/14Z 23/15Z 23/16Z 23/17Z 23/18Z 23/19Z 23/20Z
Temp54 52 46 50 46 47 51 53 55 58 62 65 66
Dewpt53 51 45 49 44 45 49 49 49 50 49 50 51
Altim29.89 29.89 29.89 29.88 29.90 29.93 29.97 30.00 30.03 30.04 30.03 30.01 29.99
VIS0.25 0.25 0.5 6 5 8 10 10 10 10 10 10 10
CIG2 1 -- -- -- -- -- 13 13 -- -- -- --
CoverOVXOVXFEWCLRFEWCLRFEWOVCOVCFEWFEWFEWSCT
FltCatLIFRLIFRLIFRVFRMVFRVFRVFRMVFRMVFRVFRVFRVFRVFR
WXFGFGFGBRBR BCFG----------------
WDir230220210270023033035033034036035030
WSpd4 3 3 4 0 4 4 11 9 13 16 10 8
WGst-- -- -- -- -- -- -- -- -- -- 22 -- --
R17/35
XWnd -3 -2 -2 -4 VRB -3 -2 -2 -4 -4 0 -2 4
XGst -- -- -- -- -- -- -- -- -- -- 0 -- --
HWnd 3 2 3 -0 VRB 3 -3 -11 -8 -12 -16 -10 -7
HGst -- -- -- -- -- -- -- -- -- -- -22 -- --
Raw hourly METARs
KAUS 230802Z 23004KT 1/4SM R17L/2000V2200FT FG VV002 12/12 A2989 RMK AO2 T01220117
KAUS 230853Z 22003KT 1/4SM R17L/2200V2800FT FG VV001 11/11 A2989 RMK AO2 SLP121 T01110106 57003
KAUS 230953Z 21003KT 1/2SM R17L/2000V4500FT FG FEW001 08/07 A2989 RMK AO2 TWR VIS 10 SLP121 T00780072
KAUS 231053Z 27004KT 6SM BR CLR 10/09 A2988 RMK AO2 SLP119 T01000094
KAUS 231153Z 00000KT 5SM R17L/4000VP6000FT BR BCFG FEW002 08/07 A2990 RMK AO2 SLP125 70070 T00780067 10133 20078 53005
KAUS 231253Z 23004KT 8SM CLR 08/07 A2993 RMK AO2 SLP136 T00830072
KAUS 231353Z 33004KT 10SM FEW050 11/09 A2997 RMK AO2 SLP148 T01060094
KAUS 231453Z 35011KT 10SM OVC013 12/09 A3000 RMK AO2 SLP159 T01170094 53034
KAUS 231553Z 33009KT 10SM OVC013 13/09 A3003 RMK AO2 SLP166 T01280094
KAUS 231653Z 34013KT 10SM FEW015 14/10 A3004 RMK AO2 SLP171 T01440100
KAUS 231753Z 36016G22KT 10SM FEW020 17/09 A3003 RMK AO2 SLP166 T01670094 10172 20061 50008
KAUS 231853Z 35010KT 10SM FEW025 18/10 A3001 RMK AO2 SLP158 T01830100
KAUS 231953Z 03008KT 10SM SCT034 19/11 A2999 RMK AO2 SLP153 T01890106



Page loaded:  20:49 UTC  |   12:49 PM Pacific  |   01:49 PM Mountain  |   02:49 PM Central  |   03:49 PM Eastern

 

ADVISORIES

FORECASTS

FORECASTS

OBSERVATIONS

USER TOOLS

ABOUT US